createdAt,value
2024-02-29T00:02:24.730Z,100751.56
2024-02-29T00:05:27.878Z,100754.66
2024-02-29T00:08:30.865Z,100764.53
2024-02-29T00:11:34.159Z,100764.22
2024-02-29T00:14:39.695Z,100768.44
2024-02-29T00:17:43.121Z,100766.19
2024-02-29T00:20:46.269Z,100761.06
2024-02-29T00:23:49.666Z,100761.31
2024-02-29T00:26:52.442Z,100760.25
2024-02-29T00:29:55.781Z,100753.66
2024-02-29T00:32:58.820Z,100751.38
2024-02-29T00:36:09.316Z,100751.72
2024-02-29T00:39:15.418Z,100751.66
2024-02-29T00:42:19.073Z,100757.53
2024-02-29T00:45:21.857Z,100748.84
2024-02-29T00:48:24.938Z,100743.84
2024-02-29T00:51:27.936Z,100744.22
2024-02-29T00:54:31.186Z,100752.66
2024-02-29T00:57:34.355Z,100752.50
2024-02-29T01:00:37.722Z,100749.75
2024-02-29T01:03:41.087Z,100749.37
2024-02-29T01:06:44.570Z,100729.47
2024-02-29T01:09:47.564Z,100741.87
2024-02-29T01:12:50.959Z,100737.50
2024-02-29T01:15:53.999Z,100740.50
2024-02-29T01:18:58.519Z,100739.06
2024-02-29T01:22:03.734Z,100731.38
2024-02-29T01:25:07.811Z,100727.47
2024-02-29T01:28:11.490Z,100731.87
2024-02-29T01:31:15.627Z,100722.69
2024-02-29T01:34:19.948Z,100718.16
2024-02-29T01:37:23.366Z,100716.69
2024-02-29T01:40:26.613Z,100708.97
2024-02-29T01:43:30.791Z,100702.59
2024-02-29T01:46:33.802Z,100703.66
2024-02-29T01:49:37.391Z,100706.91
2024-02-29T01:52:44.419Z,100707.84
2024-02-29T01:55:47.836Z,100705.91
2024-02-29T01:58:51.151Z,100701.53
2024-02-29T02:01:54.485Z,100700.12
2024-02-29T02:04:57.859Z,100690.50
2024-02-29T02:08:00.882Z,100698.84
2024-02-29T02:11:04.378Z,100700.91
2024-02-29T02:14:07.312Z,100698.47
2024-02-29T02:17:11.743Z,100697.56
2024-02-29T02:20:18.959Z,100702.97
2024-02-29T02:23:22.927Z,100700.56
2024-02-29T02:26:25.698Z,100700.84
2024-02-29T02:29:29.050Z,100692.16
2024-02-29T02:32:31.905Z,100690.63
2024-02-29T02:35:35.504Z,100694.94
2024-02-29T02:38:38.510Z,100683.97
2024-02-29T02:41:42.299Z,100695.59
2024-02-29T02:44:45.056Z,100689.03
2024-02-29T02:47:48.151Z,100682.56
2024-02-29T02:50:52.668Z,100695.84
2024-02-29T02:53:55.832Z,100687.87
2024-02-29T02:56:58.808Z,100691.25
2024-02-29T03:00:02.019Z,100696.09
2024-02-29T03:03:05.194Z,100672.97
2024-02-29T03:06:08.261Z,100684.56
2024-02-29T03:09:12.672Z,100683.41
2024-02-29T03:12:16.836Z,100688.72
2024-02-29T03:15:19.818Z,100694.41
2024-02-29T03:18:22.975Z,100698.09
2024-02-29T03:21:25.885Z,100688.63
2024-02-29T03:24:29.007Z,100692.19
2024-02-29T03:27:31.934Z,100700.63
2024-02-29T03:30:35.166Z,100697.84
2024-02-29T03:33:38.495Z,100690.81
2024-02-29T03:36:41.787Z,100698.00
2024-02-29T03:39:44.701Z,100696.31
2024-02-29T03:42:47.951Z,100693.88
2024-02-29T03:45:50.761Z,100693.84
2024-02-29T03:48:54.018Z,100692.81
2024-02-29T03:51:56.821Z,100689.38
2024-02-29T03:54:59.932Z,100692.41
2024-02-29T03:58:02.699Z,100690.75
2024-02-29T04:01:06.856Z,100697.25
2024-02-29T04:04:10.163Z,100689.94
2024-02-29T04:07:13.046Z,100698.53
2024-02-29T04:10:16.653Z,100696.91
2024-02-29T04:13:19.738Z,100694.09
2024-02-29T04:16:23.583Z,100695.06
2024-02-29T04:19:26.252Z,100686.06
2024-02-29T04:22:31.169Z,100678.56
2024-02-29T04:25:34.053Z,100679.41
2024-02-29T04:28:37.843Z,100678.84
2024-02-29T04:31:40.730Z,100684.47
2024-02-29T04:34:43.887Z,100673.44
2024-02-29T04:37:46.593Z,100658.63
2024-02-29T04:40:49.665Z,100664.44
2024-02-29T04:43:52.731Z,100664.22
2024-02-29T04:46:55.844Z,100677.03
2024-02-29T04:49:59.673Z,100679.50
2024-02-29T04:53:02.848Z,100672.41
2024-02-29T04:56:07.400Z,100679.75
2024-02-29T04:59:11.549Z,100676.53
2024-02-29T05:02:14.798Z,100667.34
2024-02-29T05:05:18.292Z,100677.66
2024-02-29T05:08:21.038Z,100678.47
2024-02-29T05:11:24.426Z,100675.56
2024-02-29T05:14:27.184Z,100677.69
2024-02-29T05:17:30.634Z,100670.38
2024-02-29T05:20:33.615Z,100667.16
2024-02-29T05:23:36.671Z,100678.53
2024-02-29T05:26:39.847Z,100681.13
2024-02-29T05:29:43.030Z,100672.88
2024-02-29T05:32:46.065Z,100669.56
2024-02-29T05:35:52.325Z,100670.41
2024-02-29T05:38:56.031Z,100664.72
2024-02-29T05:41:59.525Z,100663.44
2024-02-29T05:45:03.250Z,100667.03
2024-02-29T05:48:06.875Z,100668.84
2024-02-29T05:51:10.337Z,100677.28
2024-02-29T05:54:13.719Z,100674.25
2024-02-29T05:57:16.554Z,100668.75
2024-02-29T06:00:20.899Z,100668.25
2024-02-29T06:03:24.028Z,100676.84
2024-02-29T06:06:27.227Z,100661.16
2024-02-29T06:09:30.381Z,100685.44
2024-02-29T06:12:33.164Z,100673.28
2024-02-29T06:15:36.388Z,100679.75
2024-02-29T06:18:39.498Z,100673.12
2024-02-29T06:21:43.272Z,100668.41
2024-02-29T06:24:46.358Z,100672.06
2024-02-29T06:27:49.866Z,100677.31
2024-02-29T06:30:53.379Z,100672.53
2024-02-29T06:33:56.729Z,100673.97
2024-02-29T06:36:59.659Z,100674.69
2024-02-29T06:40:02.985Z,100677.31
2024-02-29T06:43:05.964Z,100668.84
2024-02-29T06:46:11.835Z,100666.28
2024-02-29T06:49:15.006Z,100661.50
2024-02-29T06:52:18.400Z,100636.19
2024-02-29T06:55:21.459Z,100646.87
2024-02-29T06:58:24.578Z,100638.75
2024-02-29T07:01:28.308Z,100645.09
2024-02-29T07:04:31.492Z,100637.84
2024-02-29T07:07:34.482Z,100632.44
2024-02-29T07:10:37.724Z,100629.91
2024-02-29T07:13:40.752Z,100636.09
2024-02-29T07:16:44.488Z,100644.00
2024-02-29T07:19:47.333Z,100641.94
2024-02-29T07:22:50.903Z,100645.03
2024-02-29T07:25:54.750Z,100646.38
2024-02-29T07:28:58.929Z,100642.66
2024-02-29T07:32:02.274Z,100640.81
2024-02-29T07:35:06.538Z,100638.28
2024-02-29T07:38:09.261Z,100634.47
2024-02-29T07:41:12.418Z,100632.69
2024-02-29T07:44:15.792Z,100635.56
2024-02-29T07:47:19.346Z,100632.59
2024-02-29T07:50:22.141Z,100624.97
2024-02-29T07:53:25.139Z,100625.03
2024-02-29T07:56:30.295Z,100614.59
2024-02-29T07:59:33.499Z,100612.03
2024-02-29T08:02:36.275Z,100611.22
2024-02-29T08:05:39.731Z,100614.66
2024-02-29T08:08:42.915Z,100617.50
2024-02-29T08:11:47.481Z,100613.16
2024-02-29T08:14:50.601Z,100609.25
2024-02-29T08:17:54.114Z,100614.13
2024-02-29T08:20:57.107Z,100601.38
2024-02-29T08:24:01.234Z,100604.03
2024-02-29T08:27:04.784Z,100600.22
2024-02-29T08:30:08.424Z,100603.31
2024-02-29T08:33:11.451Z,100596.59
2024-02-29T08:36:14.776Z,100599.69
2024-02-29T08:39:18.721Z,100596.19
2024-02-29T08:42:22.026Z,100598.94
2024-02-29T08:45:24.788Z,100599.37
2024-02-29T08:48:28.903Z,100594.19
2024-02-29T08:51:32.965Z,100595.41
2024-02-29T08:54:36.691Z,100600.22
2024-02-29T08:57:40.109Z,100603.34
2024-02-29T09:00:46.062Z,100603.31
2024-02-29T09:03:51.179Z,100601.66
2024-02-29T09:06:55.086Z,100607.13
2024-02-29T09:09:58.228Z,100596.56
2024-02-29T09:13:04.713Z,100593.94
2024-02-29T09:16:11.236Z,100598.31
2024-02-29T09:19:14.916Z,100584.97
2024-02-29T09:22:17.920Z,100577.97
2024-02-29T09:25:21.240Z,100582.47
2024-02-29T09:28:24.283Z,100572.69
2024-02-29T09:31:27.520Z,100568.28
2024-02-29T09:34:35.540Z,100573.00
2024-02-29T09:37:41.285Z,100563.72
2024-02-29T09:40:49.580Z,100566.97
2024-02-29T09:43:57.758Z,100558.34
2024-02-29T09:47:00.795Z,100555.06
2024-02-29T09:50:05.870Z,100546.47
2024-02-29T09:53:11.326Z,100543.41
2024-02-29T09:56:15.586Z,100536.25
2024-02-29T09:59:19.584Z,100531.91
2024-02-29T10:02:24.591Z,100524.50
2024-02-29T10:05:28.281Z,100514.06
2024-02-29T10:08:32.171Z,100523.53
2024-02-29T10:11:43.308Z,100518.87
2024-02-29T10:14:47.314Z,100511.94
2024-02-29T10:17:50.927Z,100509.25
2024-02-29T10:20:54.017Z,100503.62
2024-02-29T10:23:58.649Z,100502.94
2024-02-29T10:27:06.533Z,100508.13
2024-02-29T10:30:16.200Z,100505.19
2024-02-29T10:33:19.256Z,100498.37
2024-02-29T10:36:22.810Z,100495.47
2024-02-29T10:39:25.675Z,100484.75
2024-02-29T10:42:29.043Z,100480.72
2024-02-29T10:45:36.483Z,100476.50
2024-02-29T10:49:34.526Z,100481.06
2024-02-29T10:52:44.911Z,100468.13
2024-02-29T10:55:54.169Z,100468.75
2024-02-29T10:59:08.894Z,100457.69
2024-02-29T11:02:13.305Z,100458.50
2024-02-29T11:05:18.395Z,100451.69
2024-02-29T11:08:22.473Z,100453.50
2024-02-29T11:11:29.798Z,100442.81
2024-02-29T11:14:37.298Z,100441.63
2024-02-29T11:17:42.914Z,100443.72
2024-02-29T11:20:46.074Z,100445.81
2024-02-29T11:23:49.027Z,100442.38
2024-02-29T11:26:58.889Z,100440.25
2024-02-29T11:30:02.690Z,100431.44
2024-02-29T11:33:12.632Z,100429.50
2024-02-29T11:36:16.199Z,100430.28
2024-02-29T11:39:23.946Z,100429.41
2024-02-29T11:42:28.366Z,100429.47
2024-02-29T11:45:32.680Z,100412.94
2024-02-29T11:48:36.275Z,100429.25
2024-02-29T11:51:39.408Z,100418.34
2024-02-29T11:54:43.514Z,100415.63
2024-02-29T11:57:47.496Z,100412.78
2024-02-29T12:00:50.810Z,100416.41
2024-02-29T12:03:54.281Z,100412.44
2024-02-29T12:06:57.356Z,100406.25
2024-02-29T12:10:05.439Z,100403.94
2024-02-29T12:13:08.935Z,100384.25
2024-02-29T12:16:12.534Z,100386.91
2024-02-29T12:19:15.938Z,100379.41
2024-02-29T12:22:20.412Z,100381.75
2024-02-29T12:25:23.993Z,100371.34
2024-02-29T12:28:27.445Z,100370.69
2024-02-29T12:31:30.745Z,100374.81
2024-02-29T12:34:34.094Z,100353.94
2024-02-29T12:37:40.650Z,100363.16
2024-02-29T12:40:44.897Z,100364.62
2024-02-29T12:43:55.506Z,100360.69
2024-02-29T12:46:59.752Z,100351.44
2024-02-29T12:50:03.134Z,100348.22
2024-02-29T12:53:07.042Z,100340.59
2024-02-29T12:56:10.488Z,100343.06
2024-02-29T12:59:14.036Z,100342.88
2024-02-29T13:02:17.478Z,100325.50
2024-02-29T13:05:22.628Z,100327.81
2024-02-29T13:08:25.897Z,100314.09
2024-02-29T13:11:29.531Z,100316.69
2024-02-29T13:14:32.420Z,100313.81
2024-02-29T13:17:35.875Z,100315.00
2024-02-29T13:20:39.167Z,100315.25
2024-02-29T13:23:42.526Z,100313.53
2024-02-29T13:26:45.603Z,100304.69
2024-02-29T13:29:48.830Z,100304.19
2024-02-29T13:32:51.877Z,100313.03
2024-02-29T13:35:55.431Z,100302.53
2024-02-29T13:38:58.279Z,100304.50
2024-02-29T13:42:06.614Z,100296.50
2024-02-29T13:45:10.985Z,100293.09
2024-02-29T13:48:14.722Z,100300.56
2024-02-29T13:51:17.721Z,100289.88
2024-02-29T13:54:21.325Z,100292.47
2024-02-29T13:57:24.368Z,100289.69
2024-02-29T14:00:27.625Z,100297.63
2024-02-29T14:03:30.665Z,100294.91
2024-02-29T14:06:34.154Z,100273.41
2024-02-29T14:09:37.857Z,100290.72
2024-02-29T14:12:41.771Z,100285.91
2024-02-29T14:15:45.121Z,100294.19
2024-02-29T14:18:48.181Z,100276.69
2024-02-29T14:21:53.118Z,100272.75
2024-02-29T14:24:55.961Z,100268.09
2024-02-29T14:27:59.398Z,100273.75
2024-02-29T14:31:03.177Z,100278.91
2024-02-29T14:34:07.485Z,100267.41
2024-02-29T14:37:10.852Z,100266.66
2024-02-29T14:40:14.357Z,100259.88
2024-02-29T14:43:17.468Z,100251.44
2024-02-29T14:46:20.680Z,100256.31
2024-02-29T14:49:24.538Z,100255.09
2024-02-29T14:52:28.654Z,100243.56
2024-02-29T14:55:31.628Z,100240.41
2024-02-29T14:58:35.292Z,100249.66
2024-02-29T15:01:38.455Z,100240.50
2024-02-29T15:04:42.012Z,100240.94
2024-02-29T15:07:45.238Z,100230.97
2024-02-29T15:10:49.065Z,100229.41
2024-02-29T15:13:52.005Z,100231.00
2024-02-29T15:16:55.390Z,100231.03
2024-02-29T15:19:59.432Z,100223.84
2024-02-29T15:23:02.950Z,100215.84
2024-02-29T15:26:10.807Z,100215.12
2024-02-29T15:29:14.081Z,100199.59
2024-02-29T15:32:20.482Z,100211.53
2024-02-29T15:35:23.662Z,100206.75
2024-02-29T15:38:27.225Z,100206.78
2024-02-29T15:41:30.798Z,100188.78
2024-02-29T15:44:35.043Z,100192.03
2024-02-29T15:47:38.318Z,100198.81
2024-02-29T15:50:41.631Z,100182.91
2024-02-29T15:53:45.281Z,100192.09
2024-02-29T15:56:49.532Z,100189.34
2024-02-29T15:59:52.972Z,100182.97
2024-02-29T16:02:55.872Z,100191.78
2024-02-29T16:05:58.897Z,100185.84
2024-02-29T16:09:02.025Z,100184.28
2024-02-29T16:12:07.271Z,100189.06
2024-02-29T16:15:11.265Z,100177.47
2024-02-29T16:18:14.469Z,100187.06
2024-02-29T16:21:17.558Z,100178.69
2024-02-29T16:24:20.749Z,100183.13
2024-02-29T16:27:23.588Z,100183.13
2024-02-29T16:30:26.786Z,100180.78
2024-02-29T16:33:29.993Z,100182.78
2024-02-29T16:36:35.826Z,100187.97
2024-02-29T16:39:38.637Z,100185.22
2024-02-29T16:42:42.079Z,100180.06
2024-02-29T16:45:45.933Z,100180.84
2024-02-29T16:48:55.160Z,100172.47
2024-02-29T16:51:59.501Z,100173.31
2024-02-29T16:55:03.266Z,100186.44
2024-02-29T16:58:07.300Z,100179.66
2024-02-29T17:01:11.234Z,100177.69
2024-02-29T17:04:14.221Z,100178.88
2024-02-29T17:07:17.398Z,100176.47
2024-02-29T17:10:20.388Z,100175.31
2024-02-29T17:13:24.164Z,100172.91
2024-02-29T17:16:27.354Z,100167.72
2024-02-29T17:19:30.731Z,100170.53
2024-02-29T17:22:33.831Z,100165.34
2024-02-29T17:25:39.435Z,100168.53
2024-02-29T17:28:42.735Z,100168.16
2024-02-29T17:31:46.758Z,100158.16
2024-02-29T17:34:50.892Z,100160.56
2024-02-29T17:37:54.043Z,100154.16
2024-02-29T17:40:57.394Z,100149.37
2024-02-29T17:44:00.522Z,100148.56
2024-02-29T17:47:04.613Z,100142.19
2024-02-29T17:50:09.160Z,100140.97
2024-02-29T17:53:12.251Z,100138.56
2024-02-29T17:56:19.756Z,100134.19
2024-02-29T17:59:22.927Z,100133.38
2024-02-29T18:02:26.606Z,100136.56
2024-02-29T18:05:30.145Z,100129.41
2024-02-29T18:08:33.391Z,100131.00
2024-02-29T18:11:36.494Z,100124.63
2024-02-29T18:14:39.326Z,100125.41
2024-02-29T18:17:42.460Z,100134.59
2024-02-29T18:20:45.866Z,100132.19
2024-02-29T18:23:52.055Z,100111.47
2024-02-29T18:26:55.441Z,100128.63
2024-02-29T18:29:59.008Z,100128.25
2024-02-29T18:33:01.855Z,100121.47
2024-02-29T18:36:05.499Z,100121.06
2024-02-29T18:39:13.192Z,100118.69
2024-02-29T18:42:18.710Z,100123.47
2024-02-29T18:45:21.617Z,100105.94
2024-02-29T18:48:25.504Z,100111.53
2024-02-29T18:51:28.255Z,100125.06
2024-02-29T18:54:31.851Z,100114.69
2024-02-29T18:57:36.115Z,100111.50
2024-02-29T19:00:39.421Z,100119.13
2024-02-29T19:03:42.272Z,100102.78
2024-02-29T19:06:47.181Z,100114.31
2024-02-29T19:09:50.339Z,100105.53
2024-02-29T19:12:53.642Z,100112.72
2024-02-29T19:15:56.891Z,100104.75
2024-02-29T19:19:00.785Z,100114.31
2024-02-29T19:22:05.127Z,100106.34
2024-02-29T19:25:09.007Z,100110.34
2024-02-29T19:28:12.253Z,100111.91
2024-02-29T19:31:16.855Z,100106.34
2024-02-29T19:34:21.826Z,100111.50
2024-02-29T19:37:25.571Z,100116.69
2024-02-29T19:40:30.157Z,100111.94
2024-02-29T19:43:33.812Z,100105.16
2024-02-29T19:46:44.440Z,100106.34
2024-02-29T19:49:47.880Z,100100.38
2024-02-29T19:52:52.166Z,100090.41
2024-02-29T19:55:56.690Z,100095.59
2024-02-29T19:58:59.659Z,100082.44
2024-02-29T20:02:03.416Z,100091.19
2024-02-29T20:05:08.981Z,100089.22
2024-02-29T20:08:12.449Z,100084.03
2024-02-29T20:11:16.540Z,100087.63
2024-02-29T20:14:19.522Z,100082.06
2024-02-29T20:17:24.256Z,100079.66
2024-02-29T20:20:27.573Z,100075.28
2024-02-29T20:23:31.146Z,100088.41
2024-02-29T20:26:34.457Z,100076.88
2024-02-29T20:29:37.831Z,100082.06
2024-02-29T20:32:41.753Z,100066.91
2024-02-29T20:35:45.155Z,100078.84
2024-02-29T20:38:48.613Z,100078.84
2024-02-29T20:41:51.924Z,100076.84
2024-02-29T20:44:56.399Z,100072.91
2024-02-29T20:48:00.269Z,100077.66
2024-02-29T20:51:05.142Z,100064.88
2024-02-29T20:54:08.948Z,100063.69
2024-02-29T20:57:11.724Z,100061.28
2024-02-29T21:00:18.418Z,100065.66
2024-02-29T21:06:49.380Z,100055.66
2024-02-29T21:09:53.232Z,100056.84
2024-02-29T21:12:57.323Z,100052.47
2024-02-29T21:16:01.088Z,100048.88
2024-02-29T21:19:04.863Z,100034.91
2024-02-29T21:22:12.049Z,100041.69
2024-02-29T21:25:15.365Z,100025.38
2024-02-29T21:28:18.480Z,100016.97
2024-02-29T21:31:21.730Z,100026.91
2024-02-29T21:34:24.613Z,100025.28
2024-02-29T21:37:27.912Z,100018.50
2024-02-29T21:40:32.528Z,100015.69
2024-02-29T21:43:36.051Z,100022.84
2024-02-29T21:46:38.935Z,100022.00
2024-02-29T21:49:42.319Z,100020.47
2024-02-29T21:52:45.258Z,100013.72
2024-02-29T21:55:48.742Z,100005.00
2024-02-29T21:58:51.966Z,99990.69
2024-02-29T22:01:58.751Z,99983.53
2024-02-29T22:05:02.157Z,99989.41
2024-02-29T22:08:06.260Z,99983.81
2024-02-29T22:11:10.154Z,99968.31
2024-02-29T22:14:13.485Z,99961.06
2024-02-29T22:17:16.883Z,99978.87
2024-02-29T22:20:20.813Z,99977.72
2024-02-29T22:23:23.999Z,99978.53
2024-02-29T22:26:27.430Z,99965.03
2024-02-29T22:29:30.929Z,99951.88
2024-02-29T22:32:34.134Z,99955.47
2024-02-29T22:35:37.393Z,99958.62
2024-02-29T22:38:41.382Z,99958.16
2024-02-29T22:41:56.538Z,99948.28
2024-02-29T22:45:08.670Z,99940.41
2024-02-29T22:48:11.998Z,99934.84
2024-02-29T22:51:17.166Z,99939.91
2024-02-29T22:54:20.663Z,99941.00
2024-02-29T22:57:23.482Z,99934.63
2024-02-29T23:00:31.944Z,99933.69
2024-02-29T23:03:36.032Z,99935.06
2024-02-29T23:06:39.543Z,99935.84
2024-02-29T23:09:42.284Z,99917.06
2024-02-29T23:12:45.833Z,99917.37
2024-02-29T23:15:50.608Z,99908.66
2024-02-29T23:18:53.827Z,99899.97
2024-02-29T23:21:56.840Z,99898.53
2024-02-29T23:25:00.048Z,99898.06
2024-02-29T23:28:02.901Z,99899.41
2024-02-29T23:31:06.731Z,99886.13
2024-02-29T23:34:09.620Z,99880.59
2024-02-29T23:37:13.063Z,99860.84
2024-02-29T23:40:16.168Z,99880.53
2024-02-29T23:43:19.859Z,99871.72
2024-02-29T23:46:23.109Z,99871.22
2024-02-29T23:49:27.081Z,99871.75
2024-02-29T23:52:29.950Z,99863.44
2024-02-29T23:55:33.347Z,99858.84
2024-02-29T23:58:37.594Z,99852.28
